Time;durP1;ratioP1;P1;durP2;ratioP2;P2;SDS_P1;SDS_P2;PMS_P1;PMS_P2;Temp;Humidity;BMP_temperature;BMP_pressure;BME280_temperature;BME280_humidity;BME280_pressure;Samples;Min_cycle;Max_cycle;Signal;HPM_P1;HPM_P2
2022/09/21 00:01:53;;;;;;;5.80;3.15;;;;;;;-148.88;98.44;77158.69;5075874;28;20073;-83
2022/09/21 00:04:18;;;;;;;9.77;3.53;;;;;;;-148.88;98.43;77166.81;5075615;28;20024;-82
2022/09/21 00:06:44;;;;;;;8.48;5.20;;;;;;;-148.88;98.41;77168.84;5057606;28;20463;-82
2022/09/21 00:09:10;;;;;;;7.45;5.20;;;;;;;-148.88;98.02;77162.75;5056054;28;20028;-83
2022/09/21 00:11:36;;;;;;;7.85;4.90;;;;;;;-148.88;97.83;77170.88;5057192;28;20082;-83
2022/09/21 00:14:06;;;;;;;7.55;5.30;;;;;;;-148.88;98.10;77174.94;5075456;28;20119;-83
2022/09/21 00:16:31;;;;;;;8.88;5.00;;;;;;;-148.88;98.46;77170.88;5057112;28;20106;-83
2022/09/21 00:18:57;;;;;;;6.50;3.55;;;;;;;-148.88;99.10;77166.81;5057176;28;20044;-83
2022/09/21 00:21:23;;;;;;;9.15;5.80;;;;;;;-148.88;99.21;77172.91;5075204;28;20032;-83
2022/09/21 00:23:49;;;;;;;7.65;3.95;;;;;;;-148.88;99.42;77166.81;5057261;28;20483;-83
2022/09/21 00:26:17;;;;;;;9.65;5.68;;;;;;;-148.88;99.50;77162.75;5074953;28;20020;-83
2022/09/21 00:28:43;;;;;;;7.07;4.20;;;;;;;-148.88;99.64;77158.69;5074846;28;20024;-83
2022/09/21 00:31:11;;;;;;;8.65;5.85;;;;;;;-148.88;99.44;77164.78;5074800;28;20422;-83
2022/09/21 00:33:40;;;;;;;7.25;3.50;;;;;;;-148.88;99.22;77164.78;5074972;28;20020;-83
2022/09/21 00:36:08;;;;;;;7.65;3.75;;;;;;;-148.88;99.97;77162.75;5075341;28;20024;-83
2022/09/21 00:38:34;;;;;;;7.93;3.85;;;;;;;-148.88;99.86;77166.81;5057247;28;20099;-83
2022/09/21 00:40:59;;;;;;;9.70;3.70;;;;;;;-148.88;99.51;77172.91;5057113;28;20462;-84
2022/09/21 00:43:25;;;;;;;8.75;5.95;;;;;;;-148.88;98.93;77174.94;5075200;28;20032;-84
2022/09/21 00:45:59;;;;;;;7.43;3.63;;;;;;;-148.88;98.51;77183.06;5075085;28;20020;-84
2022/09/21 00:48:24;;;;;;;6.03;3.10;;;;;;;-148.88;98.88;77185.09;5059558;28;20059;-85
2022/09/21 00:50:54;;;;;;;8.00;4.22;;;;;;;-148.88;98.79;77193.22;5057826;28;20119;-84
2022/09/21 00:53:21;;;;;;;9.32;4.25;;;;;;;-148.88;98.92;77191.19;5057227;28;20021;-85
2022/09/21 00:55:54;;;;;;;7.00;3.65;;;;;;;-148.88;99.47;77191.19;5075508;28;20028;-84
2022/09/21 00:58:24;;;;;;;5.25;3.42;;;;;;;-148.88;99.44;77193.22;5075093;28;20023;-84
2022/09/21 01:00:49;;;;;;;7.75;3.85;;;;;;;-148.88;99.42;77183.06;5074911;28;20068;-83
2022/09/21 01:03:15;;;;;;;8.90;4.38;;;;;;;-148.88;99.73;77195.25;5057114;28;20058;-84
2022/09/21 01:05:40;;;;;;;8.55;6.57;;;;;;;-148.88;99.86;77191.19;5074879;28;20060;-84
2022/09/21 01:08:08;;;;;;;6.80;6.07;;;;;;;-148.88;99.49;77203.41;5074595;28;20038;-84
2022/09/21 01:10:51;;;;;;;5.88;4.13;;;;;;;-148.88;99.18;77207.47;5057474;28;20029;-83
2022/09/21 01:13:43;;;;;;;9.48;4.78;;;;;;;-148.88;99.23;77215.59;5074491;28;20031;-83
2022/09/21 01:16:16;;;;;;;7.90;3.83;;;;;;;-148.88;99.59;77207.47;5056551;28;20029;-84
2022/09/21 01:18:50;;;;;;;;;;;;;;;-148.88;99.38;77213.56;5074996;28;20128;-84
2022/09/21 01:21:22;;;;;;;10.37;3.80;;;;;;;-148.88;99.29;77215.59;5056265;28;19912;-83
2022/09/21 01:24:15;;;;;;;7.13;4.15;;;;;;;-148.88;98.99;77221.69;5074874;28;20115;-83
2022/09/21 01:27:00;;;;;;;7.22;4.53;;;;;;;-148.88;99.30;77219.66;5074716;28;20035;-83
2022/09/21 01:29:41;;;;;;;8.55;4.55;;;;;;;-148.88;99.43;77229.81;5056335;28;20423;-83
2022/09/21 01:32:18;;;;;;;7.63;4.60;;;;;;;-148.88;99.04;77237.94;5056872;28;20123;-84
2022/09/21 01:35:02;;;;;;;10.95;4.65;;;;;;;-148.88;99.29;77231.84;5056021;28;20021;-83
2022/09/21 01:37:41;;;;;;;8.13;4.93;;;;;;;-148.88;99.43;77235.91;5073908;28;20483;-83
2022/09/21 01:40:11;;;;;;;7.72;4.78;;;;;;;-148.88;98.79;77252.16;5073973;28;20024;-83
2022/09/21 01:42:40;;;;;;;7.05;4.47;;;;;;;-148.88;98.60;77254.19;5056015;28;20024;-83
2022/09/21 01:45:07;;;;;;;8.75;6.80;;;;;;;-148.88;99.16;77252.16;5073715;28;20023;-83
2022/09/21 01:47:36;;;;;;;8.10;4.55;;;;;;;-148.88;99.04;77244.03;5073784;28;20056;-83
2022/09/21 01:50:05;;;;;;;7.20;4.32;;;;;;;-148.88;99.28;77248.09;5074071;28;20463;-83
2022/09/21 01:52:43;;;;;;;6.97;4.30;;;;;;;-148.88;98.89;77258.25;5073913;28;20039;-83
2022/09/21 01:55:15;;;;;;;7.55;4.68;;;;;;;-148.88;99.44;77262.31;5073504;28;20039;-83
2022/09/21 01:57:49;;;;;;;10.82;7.80;;;;;;;-148.88;99.13;77256.22;5073669;28;20016;-84
2022/09/21 02:00:15;;;;;;;11.00;5.00;;;;;;;-148.88;99.14;77264.34;5073503;28;20534;-83
2022/09/21 02:02:50;;;;;;;12.02;5.32;;;;;;;-148.88;99.38;77268.41;5073719;28;20024;-83
2022/09/21 02:05:18;;;;;;;9.32;5.28;;;;;;;-148.88;99.42;77272.47;5073314;28;20032;-83
2022/09/21 02:07:45;;;;;;;13.77;5.95;;;;;;;-148.88;99.94;77270.44;5073590;28;20016;-84
2022/09/21 02:10:19;;;;;;;12.05;8.38;;;;;;;-148.88;100.00;77256.22;5055269;28;20119;-84
2022/09/21 02:12:45;;;;;;;8.15;5.60;;;;;;;-148.88;100.00;77266.38;5073518;28;20016;-83
2022/09/21 02:15:11;;;;;;;9.20;4.80;;;;;;;-148.88;100.00;77264.34;5073323;28;20024;-83
2022/09/21 02:18:13;;;;;;;11.98;5.45;;;;;;;-148.88;100.00;77276.53;5073188;28;20020;-83
2022/09/21 02:20:47;;;;;;;10.15;5.65;;;;;;;-148.88;100.00;77282.63;5055469;28;20120;-84
2022/09/21 02:23:21;;;;;;;8.95;4.65;;;;;;;-148.88;100.00;77286.69;5073542;28;20025;-83
2022/09/21 02:26:05;;;;;;;9.48;5.20;;;;;;;-148.88;100.00;77292.81;5073377;28;20024;-83
2022/09/21 02:28:52;;;;;;;9.20;4.63;;;;;;;-148.88;99.47;77307.03;5073222;28;20354;-83
2022/09/21 02:31:43;;;;;;;7.78;4.53;;;;;;;-148.88;99.50;77311.09;5079447;28;20084;-84
2022/09/21 02:34:33;;;;;;;7.10;4.47;;;;;;;-148.88;99.69;77321.25;5089913;28;20050;-84
2022/09/21 02:37:22;;;;;;;8.35;4.28;;;;;;;-148.88;99.58;77325.31;5062668;28;20016;-84
2022/09/21 02:39:58;;;;;;;7.32;4.90;;;;;;;-148.88;99.13;77333.44;5057150;28;20103;-84
2022/09/21 02:42:27;;;;;;;8.75;5.15;;;;;;;-148.88;99.22;77335.47;5041135;28;20103;-84
2022/09/21 02:45:07;;;;;;;11.90;8.73;;;;;;;-148.88;99.39;77341.56;5073611;28;20029;-83
2022/09/21 02:47:41;;;;;;;11.85;5.20;;;;;;;-148.88;99.76;77339.53;5073245;28;20078;-83
2022/09/21 02:50:13;;;;;;;12.88;9.80;;;;;;;-148.88;99.76;77345.63;5072738;28;20028;-84
2022/09/21 02:52:42;;;;;;;13.00;6.65;;;;;;;-148.88;99.67;77341.56;5072931;28;20028;-84
2022/09/21 02:55:09;;;;;;;11.23;6.20;;;;;;;-148.88;100.00;77341.56;5072932;28;20054;-83
2022/09/21 02:57:36;;;;;;;10.82;5.45;;;;;;;-148.88;100.00;77341.56;5054895;28;20394;-84
2022/09/21 03:00:03;;;;;;;9.57;5.75;;;;;;;-148.88;99.85;77345.63;5072815;28;20044;-83
2022/09/21 03:02:40;;;;;;;11.15;6.53;;;;;;;-148.88;99.66;77343.59;5073156;28;20024;-83
2022/09/21 03:05:06;;;;;;;9.77;6.22;;;;;;;-148.88;99.77;77341.56;5074078;28;20459;-84
2022/09/21 03:07:32;;;;;;;10.05;5.65;;;;;;;-148.88;99.57;77341.56;5055493;28;20385;-83
2022/09/21 03:10:00;;;;;;;9.77;6.40;;;;;;;-148.88;99.48;77345.63;5073005;28;20012;-83
2022/09/21 03:12:26;;;;;;;9.00;5.57;;;;;;;-148.88;99.33;77349.69;5054848;28;20540;-83
2022/09/21 03:14:52;;;;;;;10.77;6.28;;;;;;;-148.88;99.51;77355.78;5055016;28;20028;-84
2022/09/21 03:17:17;;;;;;;13.38;7.07;;;;;;;-148.88;99.62;77357.81;5073216;28;20040;-83
2022/09/21 03:19:43;;;;;;;10.70;6.53;;;;;;;-148.88;99.40;77355.78;5073194;28;20025;-83
2022/09/21 03:22:08;;;;;;;11.57;5.97;;;;;;;-148.88;99.04;77367.97;5073102;28;20020;-85
2022/09/21 03:24:46;;;;;;;9.35;5.97;;;;;;;-148.88;99.32;77382.22;5072983;28;20020;-85
2022/09/21 03:27:19;;;;;;;9.98;6.35;;;;;;;-148.88;99.38;77392.38;5072995;28;20505;-84
2022/09/21 03:29:45;;;;;;;11.32;6.78;;;;;;;-148.88;100.00;77418.78;5072936;28;20520;-84
2022/09/21 03:32:10;;;;;;;11.85;7.10;;;;;;;-148.88;100.00;77418.78;5073026;28;20122;-85
2022/09/21 03:34:36;;;;;;;10.73;6.43;;;;;;;-148.88;100.00;77414.72;5072723;28;20056;-85
2022/09/21 03:37:03;;;;;;;11.63;7.15;;;;;;;-148.88;100.00;77414.72;5073081;28;20021;-84
2022/09/21 03:39:29;;;;;;;18.60;7.53;;;;;;;-148.88;100.00;77410.66;5072987;28;20028;-84
2022/09/21 03:41:57;;;;;;;12.82;7.15;;;;;;;-148.88;100.00;77414.72;5072892;28;20344;-84
2022/09/21 03:44:24;;;;;;;12.10;7.78;;;;;;;-148.88;100.00;77420.81;5085459;28;20036;-84
2022/09/21 03:46:49;;;;;;;9.77;6.60;;;;;;;-148.88;100.00;77414.72;5100869;28;20054;-84
2022/09/21 03:49:15;;;;;;;10.57;6.65;;;;;;;-148.88;100.00;77418.78;5091433;28;20041;-85
2022/09/21 03:51:41;;;;;;;10.13;6.50;;;;;;;-148.88;100.00;77416.75;5076667;28;20161;-85
2022/09/21 03:54:06;;;;;;;10.48;6.13;;;;;;;-148.88;100.00;77418.78;5076803;28;20069;-84
2022/09/21 03:56:32;;;;;;;13.82;6.72;;;;;;;-148.88;100.00;77422.84;5058520;28;20028;-84
2022/09/21 03:58:57;;;;;;;11.23;6.40;;;;;;;-148.88;100.00;77430.97;5076721;28;20029;-84
2022/09/21 04:01:23;;;;;;;12.68;6.95;;;;;;;-148.88;100.00;77435.03;5076755;28;20031;-84
2022/09/21 04:03:48;;;;;;;11.15;6.45;;;;;;;-148.88;100.00;77441.13;5076246;28;20442;-84
2022/09/21 04:06:13;;;;;;;10.20;5.38;;;;;;;-148.88;100.00;77439.09;5076246;28;20032;-84
2022/09/21 04:08:39;;;;;;;9.00;5.93;;;;;;;-148.88;100.00;77447.22;5076039;28;20398;-85
2022/09/21 04:11:21;;;;;;;8.77;4.93;;;;;;;-148.88;100.00;77453.31;5076209;28;20030;-87
2022/09/21 04:13:57;;;;;;;9.55;4.50;;;;;;;-148.88;100.00;77463.50;5057589;28;20024;-86
2022/09/21 04:16:25;;;;;;;8.35;4.03;;;;;;;-148.88;100.00;77461.47;5075747;28;20056;-83
2022/09/21 04:18:51;;;;;;;5.63;3.50;;;;;;;-148.88;100.00;77467.56;5075552;28;20091;-84
2022/09/21 04:21:18;;;;;;;9.63;3.85;;;;;;;-148.88;100.00;77461.47;5075439;28;20111;-84
2022/09/21 04:23:43;;;;;;;5.13;3.35;;;;;;;-148.88;100.00;77467.56;5075475;28;20482;-84
2022/09/21 04:26:39;;;;;;;5.82;3.70;;;;;;;-148.88;100.00;77475.69;5075465;28;20028;-84
2022/09/21 04:29:05;;;;;;;5.75;3.28;;;;;;;-148.88;100.00;77475.69;5062634;28;20032;-84
2022/09/21 04:31:32;;;;;;;5.43;3.08;;;;;;;-148.88;100.00;77483.81;5075656;28;20074;-84
2022/09/21 04:33:57;;;;;;;5.45;3.50;;;;;;;-148.88;100.00;77481.78;5075471;28;20033;-84
2022/09/21 04:36:25;;;;;;;7.97;4.88;;;;;;;-148.88;100.00;77471.63;5076388;28;20051;-84
2022/09/21 04:38:50;;;;;;;7.97;4.63;;;;;;;-148.88;100.00;77475.69;5075578;28;20028;-83
2022/09/21 04:41:16;;;;;;;8.55;5.07;;;;;;;-148.88;100.00;77467.56;5075767;28;20020;-83
2022/09/21 04:43:43;;;;;;;9.15;5.55;;;;;;;-148.88;100.00;77463.50;5075423;28;20025;-83
2022/09/21 04:46:14;;;;;;;9.88;5.25;;;;;;;-148.88;100.00;77461.47;5075061;28;20037;-83
2022/09/21 04:48:40;;;;;;;6.88;4.13;;;;;;;-148.88;100.00;77455.38;5075027;28;20021;-84
2022/09/21 04:51:07;;;;;;;10.57;4.32;;;;;;;-148.88;100.00;77453.31;5075298;28;20032;-83
2022/09/21 04:53:33;;;;;;;9.40;5.10;;;;;;;-148.88;100.00;77455.38;5057849;28;20026;-84
2022/09/21 04:55:58;;;;;;;10.00;5.32;;;;;;;-148.88;100.00;77459.44;5056292;28;20056;-84
2022/09/21 04:58:24;;;;;;;11.00;5.10;;;;;;;-148.88;100.00;77461.47;5074982;28;20020;-83
2022/09/21 05:00:56;;;;;;;9.25;4.10;;;;;;;-148.88;100.00;77459.44;5060963;28;20029;-83
2022/09/21 05:03:23;;;;;;;10.57;4.82;;;;;;;-148.88;100.00;77469.59;5054645;28;20491;-84
2022/09/21 05:05:51;;;;;;;10.85;4.40;;;;;;;-148.88;100.00;77469.59;5054944;28;20029;-84
2022/09/21 05:08:16;;;;;;;10.73;4.22;;;;;;;-148.88;100.00;77471.63;5062088;28;20024;-85
2022/09/21 05:10:42;;;;;;;9.38;4.55;;;;;;;-148.88;100.00;77463.50;5074293;28;20102;-87
2022/09/21 05:13:08;;;;;;;12.52;4.50;;;;;;;-148.88;100.00;77467.56;5071717;28;20024;-85
2022/09/21 05:15:36;;;;;;;11.93;4.80;;;;;;;-148.88;100.00;77467.56;5056159;28;20459;-85
2022/09/21 05:18:01;;;;;;;10.93;4.65;;;;;;;-148.88;100.00;77467.56;5056136;28;20028;-86
2022/09/21 05:20:26;;;;;;;8.75;4.10;;;;;;;-148.88;100.00;77467.56;5056097;28;20023;-86
2022/09/21 05:22:54;;;;;;;8.05;4.40;;;;;;;-148.88;100.00;77467.56;5073757;28;20098;-86
2022/09/21 05:25:19;;;;;;;11.18;4.93;;;;;;;-148.88;100.00;77479.75;5074153;28;20393;-88
2022/09/21 05:27:45;;;;;;;8.40;3.85;;;;;;;-148.88;100.00;77483.81;5074164;28;20490;-88
2022/09/21 05:30:14;;;;;;;6.55;3.63;;;;;;;-148.88;100.00;77485.84;5074154;28;20028;-86
2022/09/21 05:32:45;;;;;;;5.50;3.35;;;;;;;-148.88;100.00;77487.88;5074124;28;20052;-86
2022/09/21 05:35:23;;;;;;;7.47;3.83;;;;;;;-148.88;100.00;77493.97;5057049;28;20020;-86
2022/09/21 05:38:00;;;;;;;7.50;3.78;;;;;;;-148.88;100.00;77506.16;5074051;28;20048;-86
2022/09/21 05:40:26;;;;;;;5.50;3.53;;;;;;;-148.88;100.00;77510.22;5074252;28;20017;-86
2022/09/21 05:42:51;;;;;;;5.03;3.58;;;;;;;-148.88;100.00;77526.47;5074225;28;20394;-86
2022/09/21 05:45:19;;;;;;;4.25;2.63;;;;;;;-148.88;100.00;77518.34;5074502;28;20034;-87
2022/09/21 05:47:55;;;;;;;5.47;3.00;;;;;;;-148.88;100.00;77520.38;5073775;28;20046;-87
2022/09/21 05:50:38;;;;;;;5.03;2.92;;;;;;;-148.88;100.00;77520.38;5073885;28;20521;-86
2022/09/21 05:53:30;;;;;;;5.78;3.40;;;;;;;-148.88;100.00;77516.31;5074064;28;20103;-86
2022/09/21 05:55:58;;;;;;;5.80;3.58;;;;;;;-148.88;100.00;77512.25;5071490;28;20031;-86
2022/09/21 05:58:56;;;;;;;6.78;3.88;;;;;;;-148.88;100.00;77520.38;5037380;28;20031;-86
2022/09/21 06:01:45;;;;;;;7.57;4.28;;;;;;;-148.88;100.00;77516.31;5073479;28;20490;-85
2022/09/21 06:04:11;;;;;;;7.28;4.38;;;;;;;-148.88;100.00;77512.25;5073924;28;20028;-86
2022/09/21 06:06:37;;;;;;;5.75;3.95;;;;;;;-148.88;100.00;77512.25;5073271;28;20099;-86
2022/09/21 06:09:03;;;;;;;6.43;3.70;;;;;;;-148.88;100.00;77508.19;5073397;28;20103;-86
2022/09/21 06:11:28;;;;;;;5.47;3.50;;;;;;;-148.88;100.00;77504.13;5055705;28;20440;-87
2022/09/21 06:13:54;;;;;;;9.55;4.13;;;;;;;-148.88;100.00;77500.06;5073264;28;20482;-86
2022/09/21 06:16:19;;;;;;;5.85;3.63;;;;;;;-148.88;100.00;77502.09;5073353;28;20103;-86
2022/09/21 06:18:44;;;;;;;6.20;3.60;;;;;;;-148.88;100.00;77491.94;5073607;28;20467;-86
2022/09/21 06:21:09;;;;;;;6.22;3.83;;;;;;;-148.88;100.00;77491.94;5073318;28;20107;-87
2022/09/21 06:23:35;;;;;;;6.28;3.75;;;;;;;-148.88;100.00;77491.94;5073157;28;20447;-87
2022/09/21 06:26:01;;;;;;;6.60;3.40;;;;;;;-148.88;100.00;77485.84;5055307;28;20060;-86
2022/09/21 06:28:26;;;;;;;5.88;3.67;;;;;;;-148.88;100.00;77487.88;5073052;28;20111;-86
2022/09/21 06:30:53;;;;;;;5.50;3.45;;;;;;;-148.88;100.00;77485.84;5073230;28;20405;-87
2022/09/21 06:33:20;;;;;;;5.95;3.63;;;;;;;-148.88;100.00;77485.84;5055133;28;20031;-86
2022/09/21 06:35:58;;;;;;;5.82;3.65;;;;;;;-148.88;100.00;77496.00;5055024;28;20032;-87
2022/09/21 06:38:26;;;;;;;5.15;3.42;;;;;;;-148.88;100.00;77479.75;5073184;28;20118;-87
2022/09/21 06:40:52;;;;;;;9.20;3.58;;;;;;;-148.88;100.00;77475.69;5072802;28;20035;-85
2022/09/21 06:43:18;;;;;;;7.43;4.13;;;;;;;-148.88;100.00;77481.78;5073043;28;20024;-87
2022/09/21 06:45:51;;;;;;;6.55;4.13;;;;;;;-148.88;100.00;77491.94;5073038;28;20028;-87
2022/09/21 06:48:17;;;;;;;5.50;3.60;;;;;;;-148.88;100.00;77485.84;5054760;28;20021;-87
2022/09/21 06:50:42;;;;;;;7.32;4.32;;;;;;;-148.88;100.00;77487.88;5072561;28;20116;-87
2022/09/21 06:53:07;;;;;;;6.55;4.03;;;;;;;-148.88;100.00;77471.63;5072426;28;20044;-87
2022/09/21 06:55:33;;;;;;;6.82;4.28;;;;;;;-148.88;100.00;77473.66;5073003;28;20052;-87
2022/09/21 06:58:00;;;;;;;8.50;4.57;;;;;;;-148.88;100.00;77471.63;5072428;28;20161;-87
2022/09/21 07:00:26;;;;;;;8.35;4.82;;;;;;;-148.88;100.00;77473.66;5072948;28;20028;-87
2022/09/21 07:02:51;;;;;;;6.40;4.00;;;;;;;-148.88;100.00;77467.56;5054413;28;20024;-89
2022/09/21 07:05:16;;;;;;;7.80;4.50;;;;;;;-148.88;100.00;77461.47;5072613;28;20032;-88
2022/09/21 07:07:42;;;;;;;6.60;4.25;;;;;;;-148.88;100.00;77447.22;5072499;28;20141;-89
2022/09/21 07:10:07;;;;;;;8.82;4.25;;;;;;;-148.88;100.00;77447.22;5054454;28;20392;-89
2022/09/21 07:12:34;;;;;;;9.75;4.95;;;;;;;-148.88;100.00;77435.03;5072350;28;20023;-89
2022/09/21 07:15:04;;;;;;;8.88;5.32;;;;;;;-148.88;100.00;77435.03;5072672;28;20020;-88
2022/09/21 07:17:37;;;;;;;7.82;5.00;;;;;;;-148.88;100.00;77418.78;5054243;28;20099;-88
2022/09/21 07:20:04;;;;;;;8.75;5.18;;;;;;;-148.88;100.00;77414.72;5058175;28;20017;-88
2022/09/21 07:22:32;;;;;;;15.57;5.50;;;;;;;-148.88;100.00;77435.03;5076186;28;20529;-89
2022/09/21 07:24:57;;;;;;;11.18;6.53;;;;;;;-148.88;100.00;77418.78;5058366;28;20425;-88
2022/09/21 07:27:24;;;;;;;19.13;6.63;;;;;;;-148.88;100.00;77418.78;5057825;28;20024;-89
2022/09/21 07:29:49;;;;;;;17.65;6.65;;;;;;;-148.88;100.00;77404.56;5076116;28;20070;-89
2022/09/21 07:32:15;;;;;;;13.00;6.07;;;;;;;-148.88;100.00;77398.47;5075892;28;20032;-90
2022/09/21 07:34:40;;;;;;;15.55;7.53;;;;;;;-148.88;100.00;77390.34;5076227;28;20394;-89
2022/09/21 07:37:06;;;;;;;16.95;8.15;;;;;;;-148.88;100.00;77374.09;5075757;28;20024;-89
2022/09/21 07:39:31;;;;;;;17.77;8.18;;;;;;;-148.88;100.00;77374.09;5075633;28;20029;-88
2022/09/21 07:41:57;;;;;;;15.85;7.65;;;;;;;-148.88;100.00;77363.91;5057726;28;20483;-89
2022/09/21 07:44:23;;;;;;;16.02;7.95;;;;;;;-148.88;100.00;77349.69;5075952;28;20023;-89
2022/09/21 07:46:48;;;;;;;15.85;7.85;;;;;;;-148.88;100.00;77341.56;5057603;28;20024;-89
2022/09/21 07:49:14;;;;;;;16.20;7.63;;;;;;;-148.88;100.00;77325.31;5057648;28;20027;-89
2022/09/21 07:51:39;;;;;;;21.23;10.05;;;;;;;-148.88;100.00;77329.38;5058174;28;20085;-88
2022/09/21 07:54:05;;;;;;;22.83;8.93;;;;;;;-148.88;100.00;77317.19;5057562;28;20048;-89
2022/09/21 07:56:30;;;;;;;16.95;8.48;;;;;;;-148.88;100.00;77313.13;5057400;28;20104;-89
2022/09/21 07:59:04;;;;;;;20.65;9.55;;;;;;;-148.88;100.00;77302.97;5075212;28;20118;-87
2022/09/21 08:01:34;;;;;;;16.52;8.98;;;;;;;-148.88;100.00;77288.72;5057772;28;20459;-88
2022/09/21 08:04:00;;;;;;;13.85;8.55;;;;;;;-148.88;100.00;77286.69;5075164;28;20036;-89
2022/09/21 08:06:28;;;;;;;22.73;15.55;;;;;;;-148.88;100.00;77266.38;5057091;28;20030;-88
2022/09/21 08:08:53;;;;;;;18.42;8.93;;;;;;;-148.88;100.00;77256.22;5058109;28;20016;-89
2022/09/21 08:11:21;;;;;;;19.75;8.85;;;;;;;-148.88;100.00;77246.06;5075602;28;20020;-89
2022/09/21 08:13:47;;;;;;;21.23;15.88;;;;;;;-148.88;100.00;77229.81;5075427;28;20082;-89
2022/09/21 08:16:13;;;;;;;17.25;9.60;;;;;;;-148.88;100.00;77221.69;5057336;28;20016;-89
2022/09/21 08:18:40;;;;;;;16.55;9.27;;;;;;;-148.88;100.00;77252.16;5057516;28;20601;-89
2022/09/21 08:21:07;;;;;;;16.48;8.30;;;;;;;-148.88;100.00;77217.63;5075072;28;20032;-89
2022/09/21 08:23:39;;;;;;;20.73;15.35;;;;;;;-148.88;100.00;77215.59;5057684;28;20482;-89
2022/09/21 08:26:06;;;;;;;20.77;15.90;;;;;;;-148.88;100.00;77183.06;5075251;28;20478;-89
2022/09/21 08:28:33;;;;;;;18.15;9.25;;;;;;;-148.88;100.00;77179.00;5075019;28;20123;-89
2022/09/21 08:31:03;;;;;;;21.95;16.73;;;;;;;-148.88;100.00;77154.63;5074686;28;20025;-89
2022/09/21 08:33:29;;;;;;;22.73;17.05;;;;;;;-148.88;100.00;77138.38;5057753;28;20382;-89
2022/09/21 08:35:57;;;;;;;17.85;9.93;;;;;;;-148.88;100.00;77134.31;5057491;28;20158;-89
2022/09/21 08:38:23;;;;;;;16.33;9.20;;;;;;;-148.88;100.00;77109.94;5075139;28;20052;-89
2022/09/21 08:40:50;;;;;;;23.23;16.65;;;;;;;-148.88;100.00;77105.84;5074940;28;20047;-88
2022/09/21 08:43:26;;;;;;;21.40;16.20;;;;;;;-148.88;100.00;77071.31;5056971;28;20040;-89
2022/09/21 08:45:52;;;;;;;26.73;19.58;;;;;;;-148.88;100.00;77051.00;5075338;28;20028;-89
2022/09/21 08:48:27;;;;;;;23.73;16.45;;;;;;;-148.88;100.00;77053.03;5074658;28;20039;-88
2022/09/21 08:51:00;;;;;;;23.25;10.75;;;;;;;-148.88;100.00;77020.53;5075184;28;20028;-89
2022/09/21 08:53:48;;;;;;;24.90;17.45;;;;;;;-148.88;100.00;76983.94;5074466;28;20109;-89
2022/09/21 08:56:19;;;;;;;22.00;15.95;;;;;;;-148.88;100.00;76967.69;5056749;28;20047;-88
2022/09/21 08:58:50;;;;;;;23.45;15.85;;;;;;;-148.88;100.00;76931.13;5056641;28;20378;-89
2022/09/21 09:01:45;;;;;;;23.25;15.82;;;;;;;-148.88;100.00;76904.72;5056879;28;20109;-89
2022/09/21 09:04:53;;;;;;;24.40;16.50;;;;;;;-148.88;100.00;76878.28;5057007;28;20051;-89
2022/09/21 09:07:37;;;;;;;19.42;14.88;;;;;;;-148.88;100.00;76874.22;5074584;28;20073;-89
2022/09/21 09:10:02;;;;;;;;;;;;;;;-148.88;100.00;76862.03;5074785;28;20031;-89
2022/09/21 09:12:41;;;;;;;20.10;14.10;;;;;;;-148.88;100.00;76833.59;5056381;28;19998;-88
2022/09/21 09:15:37;;;;;;;24.25;15.55;;;;;;;-148.88;100.00;76801.09;5056328;28;20609;-89
2022/09/21 09:18:28;;;;;;;20.13;14.25;;;;;;;-148.88;100.00;76758.41;5056129;28;20059;-89
2022/09/21 09:21:02;;;;;;;17.08;14.00;;;;;;;-148.88;98.47;76740.13;5074060;28;20020;-89
2022/09/21 09:23:33;;;;;;;17.20;13.43;;;;;;;-148.88;97.72;76736.06;5074641;28;20095;-89
2022/09/21 09:26:07;;;;;;;16.17;11.00;;;;;;;-148.88;98.02;76691.38;5056106;28;20510;-89
2022/09/21 09:28:40;;;;;;;17.55;11.38;;;;;;;-148.88;94.82;76677.16;5073639;28;20060;-89
2022/09/21 09:31:17;;;;;;;15.88;10.13;;;;;;;-148.88;95.37;76626.38;5073781;28;20025;-89
2022/09/21 09:33:48;;;;;;;14.07;9.57;;;;;;;-148.88;93.23;76601.97;5074092;28;20020;-89
2022/09/21 09:36:14;;;;;;;14.52;9.45;;;;;;;-148.88;92.80;76561.34;5055821;28;20020;-88
2022/09/21 09:38:46;;;;;;;10.55;7.78;;;;;;;-148.88;90.07;76528.84;5073660;28;20104;-89
2022/09/21 09:41:27;;;;;;;11.55;8.25;;;;;;;-148.88;86.57;76516.66;5073207;28;20039;-88
2022/09/21 09:44:27;;;;;;;9.95;6.20;;;;;;;-148.88;85.51;76488.22;5073579;28;20031;-89
2022/09/21 09:47:13;;;;;;;9.23;3.60;;;;;;;-148.88;83.28;76435.41;5073982;28;20017;-88
2022/09/21 09:49:51;;;;;;;7.93;3.67;;;;;;;-148.88;79.09;76419.16;5055517;28;20090;-89
2022/09/21 09:52:17;;;;;;;8.48;4.07;;;;;;;-148.88;78.97;76388.66;5055617;28;20066;-88
2022/09/21 09:54:43;;;;;;;7.75;3.85;;;;;;;-148.88;77.49;76352.09;5055144;28;20024;-88
2022/09/21 09:57:09;;;;;;;8.25;4.32;;;;;;;-148.88;76.99;76325.69;5072951;28;20078;-88
2022/09/21 09:59:48;;;;;;;7.18;2.05;;;;;;;-148.88;71.75;76313.50;5073200;28;20017;-89
2022/09/21 10:02:18;;;;;;;11.73;2.88;;;;;;;-148.88;71.30;76293.19;5055173;28;20127;-88
2022/09/21 10:05:10;;;;;;;5.80;2.15;;;;;;;-148.88;70.52;76258.66;5055383;28;20028;-88
2022/09/21 10:07:47;;;;;;;9.52;2.95;;;;;;;-148.88;69.27;76236.31;5056000;28;20044;-88
2022/09/21 10:10:28;;;;;;;7.57;2.85;;;;;;;-148.88;68.04;76195.69;5055148;28;20027;-88
2022/09/21 10:12:55;;;;;;;7.45;2.72;;;;;;;-148.88;67.61;76169.28;5055061;28;20032;-88
2022/09/21 10:15:23;;;;;;;7.93;2.55;;;;;;;-148.88;63.56;76169.28;5055939;28;20031;-88
2022/09/21 10:18:01;;;;;;;7.13;2.40;;;;;;;-148.88;64.26;76169.28;5073404;28;20035;-88
2022/09/21 10:20:29;;;;;;;9.57;2.90;;;;;;;-148.88;63.99;76148.97;5074847;28;20082;-88
2022/09/21 10:22:55;;;;;;;7.43;2.38;;;;;;;-148.88;64.37;76151.00;5073866;28;20030;-88
2022/09/21 10:25:21;;;;;;;9.70;2.85;;;;;;;-148.88;62.84;76140.84;5073328;28;20390;-89
2022/09/21 10:27:49;;;;;;;4.93;2.03;;;;;;;-148.88;61.27;76163.19;5073373;28;20138;-88
2022/09/21 10:30:33;;;;;;;6.38;2.22;;;;;;;-148.88;60.31;76134.72;5055757;28;20117;-88
2022/09/21 10:32:58;;;;;;;;;;;;;;;-148.88;60.68;76132.72;5055600;28;20135;-88
2022/09/21 10:35:24;;;;;;;5.23;1.70;;;;;;;-148.88;58.97;76090.03;5073702;28;19916;-88
2022/09/21 10:38:16;;;;;;;9.13;2.30;;;;;;;-148.88;59.73;76049.41;5055367;28;20257;-88
2022/09/21 10:40:43;;;;;;;7.45;1.80;;;;;;;-148.88;57.48;76020.97;5057814;28;20094;-89
2022/09/21 10:43:32;;;;;;;6.10;1.60;;;;;;;-148.88;55.84;75988.47;5079626;28;20025;-87
2022/09/21 10:45:58;;;;;;;7.28;1.70;;;;;;;-148.88;56.17;75980.34;5095911;28;20086;-88
2022/09/21 10:48:25;;;;;;;8.85;2.00;;;;;;;-148.88;56.63;75958.00;5056135;28;20020;-88
2022/09/21 10:50:53;;;;;;;5.55;1.40;;;;;;;-148.88;54.45;75945.81;5073379;28;20039;-88
2022/09/21 10:53:29;;;;;;;7.35;1.40;;;;;;;-148.88;53.08;75968.16;5056189;28;20033;-88
2022/09/21 10:56:03;;;;;;;9.88;1.70;;;;;;;-148.88;50.11;75960.03;5060279;28;20020;-88
2022/09/21 10:58:29;;;;;;;7.30;1.70;;;;;;;-148.88;52.98;76110.34;5076723;28;20451;-89
2022/09/21 11:01:15;;;;;;;5.93;1.40;;;;;;;-148.88;55.10;76025.03;5076888;28;20033;-88
2022/09/21 11:04:00;;;;;;;2.90;1.00;;;;;;;-148.88;52.75;75964.09;5076978;28;20078;-88
2022/09/21 11:06:36;;;;;;;7.00;1.35;;;;;;;-148.88;52.33;75941.75;5058325;28;20037;-87
2022/09/21 11:09:10;;;;;;;5.07;1.30;;;;;;;-148.88;52.26;75886.91;5058785;28;20036;-88
2022/09/21 11:11:44;;;;;;;3.58;0.98;;;;;;;-148.88;49.76;75905.19;5058893;28;20465;-88
2022/09/21 11:14:25;;;;;;;3.80;1.38;;;;;;;-148.88;51.03;76033.16;5076888;28;20116;-88
2022/09/21 11:17:10;;;;;;;6.72;1.80;;;;;;;-148.88;53.08;76053.47;5076759;28;20107;-88
2022/09/21 11:19:46;;;;;;;5.53;1.63;;;;;;;-148.88;51.71;76085.97;5076494;28;20031;-88
2022/09/21 11:22:21;;;;;;;5.75;1.50;;;;;;;-148.88;51.78;76122.56;5058267;28;20039;-88
2022/09/21 11:24:51;;;;;;;8.82;1.67;;;;;;;-148.88;52.97;76136.78;5076629;28;20024;-88
2022/09/21 11:27:23;;;;;;;3.97;1.20;;;;;;;-148.88;52.46;76081.91;5076500;28;20534;-87